Time;durP1;ratioP1;P1;durP2;ratioP2;P2;SDS_P1;SDS_P2;PMS_P1;PMS_P2;Temp;Humidity;BMP_temperature;BMP_pressure;BME280_temperature;BME280_humidity;BME280_pressure;Samples;Min_cycle;Max_cycle;Signal;HPM_P1;HPM_P2
2023/04/30 00:00:12;;;;;;;6.05;3.70;;;;;;;14.92;53.38;99401.56;3156846;28;20055;-76
2023/04/30 00:01:43;;;;;;;7.37;3.43;;;;;;;14.94;53.44;99404.09;3157025;28;20055;-75
2023/04/30 00:03:15;;;;;;;7.70;3.63;;;;;;;14.89;53.31;99395.69;3160747;28;20545;-75
2023/04/30 00:04:47;;;;;;;7.28;3.38;;;;;;;14.97;53.33;99398.63;3161157;28;20625;-75
2023/04/30 00:06:19;;;;;;;7.93;3.58;;;;;;;15.02;52.86;99406.97;3164583;28;20052;-75
2023/04/30 00:07:51;;;;;;;8.52;4.50;;;;;;;15.04;53.09;99412.13;3164329;28;20051;-78
2023/04/30 00:09:23;;;;;;;7.55;3.60;;;;;;;15.04;53.14;99399.03;3164446;28;20211;-75
2023/04/30 00:10:54;;;;;;;8.93;3.83;;;;;;;15.05;53.06;99398.91;3164294;28;20047;-75
2023/04/30 00:12:26;;;;;;;5.95;3.47;;;;;;;15.08;53.20;99405.72;3164208;28;20052;-75
2023/04/30 00:13:59;;;;;;;7.95;3.60;;;;;;;15.11;53.49;99398.47;3155700;28;20171;-77
2023/04/30 00:15:32;;;;;;;7.55;3.38;;;;;;;15.10;53.35;99401.22;3164288;28;20504;-75
2023/04/30 00:17:03;;;;;;;8.05;3.97;;;;;;;15.13;53.67;99399.22;3164327;28;20540;-75
2023/04/30 00:18:35;;;;;;;9.75;3.80;;;;;;;15.15;53.97;99402.56;3164408;28;20084;-75
2023/04/30 00:20:07;;;;;;;6.05;3.42;;;;;;;15.18;53.63;99404.16;3164417;28;20047;-77
2023/04/30 00:21:39;;;;;;;8.98;4.10;;;;;;;15.13;53.69;99393.13;3164260;28;20100;-76
2023/04/30 00:23:11;;;;;;;8.77;3.83;;;;;;;15.18;54.10;99399.72;3164376;28;20056;-76
2023/04/30 00:24:43;;;;;;;9.13;3.78;;;;;;;15.13;53.30;99401.84;3163886;28;20449;-75
2023/04/30 00:26:15;;;;;;;6.13;2.90;;;;;;;15.12;53.13;99402.78;3164078;28;20055;-75
2023/04/30 00:27:47;;;;;;;9.82;3.65;;;;;;;15.10;52.56;99406.47;3162324;28;20138;-76
2023/04/30 00:29:20;;;;;;;6.97;3.60;;;;;;;15.03;52.50;99395.56;3161221;28;20052;-75
2023/04/30 00:30:52;;;;;;;10.98;3.42;;;;;;;15.05;52.46;99412.00;3163952;28;20227;-75
2023/04/30 00:32:24;;;;;;;7.97;3.65;;;;;;;15.02;52.01;99406.97;3159916;28;20047;-75
2023/04/30 00:33:56;;;;;;;8.15;3.47;;;;;;;14.97;52.26;99388.97;3164021;28;20118;-77
2023/04/30 00:35:28;;;;;;;8.07;3.45;;;;;;;15.01;51.94;99400.91;3158687;28;20060;-75
2023/04/30 00:37:00;;;;;;;7.15;3.30;;;;;;;15.03;51.68;99403.44;3157888;28;20085;-76
2023/04/30 00:38:32;;;;;;;10.90;3.38;;;;;;;14.99;51.97;99413.28;3166344;28;20059;-76
2023/04/30 00:40:04;;;;;;;15.23;4.00;;;;;;;14.98;51.51;99408.16;3156477;28;20108;-77
2023/04/30 00:41:37;;;;;;;9.15;3.65;;;;;;;14.96;51.81;99404.78;3166740;28;20108;-75
2023/04/30 00:43:09;;;;;;;6.90;3.20;;;;;;;14.93;51.86;99408.47;3161120;28;20055;-75
2023/04/30 00:44:41;;;;;;;9.20;3.65;;;;;;;14.88;51.76;99407.09;3166563;28;20082;-75
2023/04/30 00:46:13;;;;;;;7.03;3.70;;;;;;;14.88;51.70;99400.09;3166646;28;20063;-75
2023/04/30 00:47:45;;;;;;;11.45;3.72;;;;;;;14.86;51.77;99398.53;3166936;28;20132;-75
2023/04/30 00:49:15;;;;;;;10.32;3.50;;;;;;;14.86;51.74;99401.97;3141701;28;20052;-75
2023/04/30 00:50:47;;;;;;;8.90;3.83;;;;;;;14.85;51.57;99400.31;3164953;28;20535;-75
2023/04/30 00:52:19;;;;;;;11.43;3.63;;;;;;;14.89;51.80;99400.94;3166551;28;20447;-74
2023/04/30 00:53:50;;;;;;;11.40;3.17;;;;;;;14.93;51.83;99407.63;3159332;28;20511;-77
2023/04/30 00:55:22;;;;;;;10.95;3.47;;;;;;;14.93;51.69;99403.22;3163523;28;20138;-77
2023/04/30 00:56:54;;;;;;;6.20;3.60;;;;;;;14.92;52.16;99401.56;3166305;28;20052;-76
2023/04/30 00:58:26;;;;;;;8.90;3.55;;;;;;;14.93;52.07;99397.13;3154948;28;20048;-78
2023/04/30 00:59:58;;;;;;;11.00;4.50;;;;;;;14.97;51.93;99398.63;3161167;28;20505;-76
2023/04/30 01:01:32;;;;;;;11.82;3.70;;;;;;;14.96;51.78;99397.75;3156846;28;20279;-75
2023/04/30 01:03:04;;;;;;;10.02;3.53;;;;;;;14.63;51.61;99339.81;3159606;28;20056;-77
2023/04/30 01:04:36;;;;;;;6.25;3.63;;;;;;;14.90;51.83;99392.94;3166717;28;20051;-76
2023/04/30 01:06:08;;;;;;;6.15;3.15;;;;;;;14.91;51.90;99393.81;3166634;28;20179;-78
2023/04/30 01:07:43;;;;;;;10.18;3.78;;;;;;;14.83;51.84;99380.38;3166592;28;20055;-77
2023/04/30 01:09:15;;;;;;;10.38;3.72;;;;;;;14.76;51.68;99374.75;3166008;28;20468;-75
2023/04/30 01:10:55;;;;;;;7.85;3.58;;;;;;;14.81;51.66;99383.09;3166433;28;20087;-75
2023/04/30 01:12:37;;;;;;;7.47;3.25;;;;;;;14.83;51.60;99394.31;3161684;28;20109;-75
2023/04/30 01:14:13;;;;;;;6.03;3.25;;;;;;;14.79;51.78;99393.72;3157630;28;20759;-76
2023/04/30 01:15:57;;;;;;;5.80;3.30;;;;;;;14.74;51.29;99392.34;3166439;28;20066;-74
2023/04/30 01:17:34;;;;;;;8.35;3.15;;;;;;;14.74;51.64;99393.19;3166284;28;20116;-75
2023/04/30 01:19:11;;;;;;;8.88;3.40;;;;;;;14.73;51.50;99396.75;3166412;28;20113;-76
2023/04/30 01:20:48;;;;;;;9.93;3.38;;;;;;;14.70;51.78;99396.97;3166173;28;20066;-76
2023/04/30 01:22:37;;;;;;;8.82;3.30;;;;;;;14.61;51.78;99389.75;3166392;28;20051;-76
2023/04/30 01:24:38;;;;;;;9.80;2.85;;;;;;;14.60;51.56;99393.28;3166338;28;20047;-76
2023/04/30 01:26:15;;;;;;;5.00;3.42;;;;;;;14.60;51.93;99395.91;3154590;28;20060;-76
2023/04/30 01:28:06;;;;;;;7.18;3.05;;;;;;;14.60;51.77;99395.91;3159337;28;20105;-75
2023/04/30 01:29:41;;;;;;;6.25;3.67;;;;;;;14.61;51.89;99397.59;3165026;28;20056;-79
2023/04/30 01:31:18;;;;;;;10.43;3.38;;;;;;;14.62;52.12;99394.03;3166571;28;20103;-77
2023/04/30 01:32:48;;;;;;;7.68;3.67;;;;;;;14.61;52.48;99391.50;3165795;28;20448;-77
2023/04/30 01:34:21;;;;;;;10.55;3.30;;;;;;;14.60;52.51;99393.28;3166057;28;20051;-77
2023/04/30 01:36:30;;;;;;;8.25;3.60;;;;;;;14.59;52.54;99396.03;3157145;28;20500;-76
2023/04/30 01:38:16;;;;;;;5.88;3.17;;;;;;;14.54;52.73;99394.53;3153761;28;20052;-77
2023/04/30 01:40:01;;;;;;;7.18;3.28;;;;;;;14.49;52.96;99385.28;3145027;28;20086;-77
2023/04/30 01:41:37;;;;;;;9.30;4.03;;;;;;;14.55;52.92;99392.75;3160928;28;20052;-76
2023/04/30 01:43:16;;;;;;;8.43;4.00;;;;;;;14.55;53.16;99388.38;3163524;28;20124;-75
2023/04/30 01:45:01;;;;;;;8.57;3.63;;;;;;;14.55;53.28;99392.75;3162107;28;20051;-75
2023/04/30 01:46:34;;;;;;;6.38;3.70;;;;;;;14.54;53.62;99386.66;3151669;28;20528;-76
2023/04/30 01:48:19;;;;;;;8.52;4.00;;;;;;;14.55;53.47;99388.38;3160687;28;20150;-77
2023/04/30 01:50:03;;;;;;;4.38;3.15;;;;;;;14.51;53.42;99372.91;3160792;28;20067;-75
2023/04/30 01:51:41;;;;;;;10.20;3.47;;;;;;;14.56;53.52;99381.34;3161377;28;20055;-75
2023/04/30 01:53:18;;;;;;;9.10;3.75;;;;;;;14.29;53.33;99345.56;3159812;28;20051;-74
2023/04/30 01:54:55;;;;;;;8.27;3.00;;;;;;;14.47;53.46;99371.47;3153372;28;20044;-75
2023/04/30 01:56:31;;;;;;;5.72;3.22;;;;;;;14.55;53.20;99379.66;3155947;28;20150;-75
2023/04/30 01:58:07;;;;;;;8.43;3.65;;;;;;;14.55;53.61;99382.25;3156863;28;20043;-76
2023/04/30 01:59:43;;;;;;;8.27;3.53;;;;;;;14.55;53.61;99377.88;3152877;28;20159;-76
2023/04/30 02:01:27;;;;;;;5.95;3.30;;;;;;;14.55;53.30;99377.03;3158949;28;20520;-77
2023/04/30 02:02:59;;;;;;;7.72;3.65;;;;;;;14.53;53.64;99378.94;3165909;28;20087;-76
2023/04/30 02:04:30;;;;;;;6.47;3.35;;;;;;;14.51;53.46;99375.53;3165505;28;20055;-74
2023/04/30 02:06:02;;;;;;;7.07;3.40;;;;;;;14.48;53.48;99375.75;3165834;28;20051;-77
2023/04/30 02:07:38;;;;;;;10.80;3.70;;;;;;;14.40;53.41;99370.19;3165704;28;20055;-76
2023/04/30 02:09:10;;;;;;;4.75;2.90;;;;;;;14.33;53.42;99375.84;3165458;28;20449;-76
2023/04/30 02:10:42;;;;;;;8.50;3.47;;;;;;;14.26;53.51;99379.00;3161190;28;20052;-77
2023/04/30 02:12:14;;;;;;;7.18;3.83;;;;;;;14.17;53.56;99372.59;3165997;28;20124;-77
2023/04/30 02:13:46;;;;;;;7.47;3.60;;;;;;;14.10;54.12;99382.59;3155823;28;20720;-77
2023/04/30 02:15:18;;;;;;;7.63;4.22;;;;;;;14.08;53.83;99383.69;3165495;28;20070;-76
2023/04/30 02:16:50;;;;;;;8.52;3.92;;;;;;;14.05;54.17;99383.84;3165768;28;20112;-77
2023/04/30 02:18:22;;;;;;;8.55;3.42;;;;;;;14.03;54.35;99377.91;3165315;28;20109;-76
2023/04/30 02:19:53;;;;;;;6.80;3.53;;;;;;;14.06;54.31;99382.94;3165433;28;20048;-77
2023/04/30 02:21:26;;;;;;;8.40;4.50;;;;;;;14.05;54.69;99383.84;3165559;28;20074;-75
2023/04/30 02:22:58;;;;;;;6.80;3.60;;;;;;;14.05;54.73;99376.84;3165507;28;20451;-76
2023/04/30 02:24:28;;;;;;;8.57;3.50;;;;;;;13.94;54.96;99361.00;3157629;28;20052;-75
2023/04/30 02:26:01;;;;;;;5.72;3.63;;;;;;;14.04;55.43;99379.56;3160586;28;20429;-75
2023/04/30 02:27:33;;;;;;;7.90;3.28;;;;;;;14.05;55.06;99379.47;3165036;28;20056;-75
2023/04/30 02:29:05;;;;;;;5.72;3.35;;;;;;;13.98;54.92;99364.25;3158924;28;20052;-76
2023/04/30 02:30:38;;;;;;;7.13;3.60;;;;;;;14.06;54.96;99385.53;3165144;28;20048;-76
2023/04/30 02:32:10;;;;;;;10.88;3.83;;;;;;;14.04;55.08;99382.19;3163278;28;20054;-75
2023/04/30 02:33:41;;;;;;;8.23;3.00;;;;;;;14.03;55.44;99386.59;3165379;28;20061;-76
2023/04/30 02:35:12;;;;;;;8.90;3.78;;;;;;;14.03;55.27;99385.75;3164959;28;20051;-76
2023/04/30 02:36:44;;;;;;;8.23;3.40;;;;;;;14.00;55.73;99378.09;3165373;28;20063;-75
2023/04/30 02:38:16;;;;;;;5.50;3.25;;;;;;;13.93;55.68;99361.97;3165437;28;20835;-77
2023/04/30 02:39:48;;;;;;;9.32;3.72;;;;;;;13.75;55.61;99331.75;3154768;28;20052;-76
2023/04/30 02:41:20;;;;;;;7.05;3.50;;;;;;;14.04;55.36;99374.31;3165621;28;20311;-75
2023/04/30 02:42:53;;;;;;;5.65;3.40;;;;;;;14.04;55.54;99379.56;3162691;28;20491;-76
2023/04/30 02:44:26;;;;;;;8.13;4.25;;;;;;;13.79;55.75;99336.69;3152685;28;20056;-77
2023/04/30 02:45:59;;;;;;;11.10;3.97;;;;;;;14.05;55.91;99381.22;3165250;28;20067;-76
2023/04/30 02:47:31;;;;;;;9.90;4.05;;;;;;;14.01;56.07;99374.53;3165142;28;20211;-77
2023/04/30 02:49:03;;;;;;;5.13;3.60;;;;;;;13.96;55.87;99363.50;3165445;28;20144;-76
2023/04/30 02:50:34;;;;;;;6.53;3.42;;;;;;;14.04;55.92;99380.41;3164853;28;20096;-75
2023/04/30 02:52:08;;;;;;;8.13;3.90;;;;;;;14.04;56.06;99377.78;3165279;28;20051;-77
2023/04/30 02:53:40;;;;;;;5.15;3.28;;;;;;;13.95;56.04;99369.69;3159756;28;20052;-76
2023/04/30 02:55:12;;;;;;;7.30;3.20;;;;;;;14.03;56.27;99383.13;3160579;28;20120;-76
2023/04/30 02:56:43;;;;;;;8.35;3.67;;;;;;;14.02;56.08;99378.81;3164793;28;20055;-77
2023/04/30 02:58:15;;;;;;;8.05;3.47;;;;;;;14.01;55.77;99383.22;3159812;28;20056;-77
2023/04/30 02:59:47;;;;;;;7.68;3.47;;;;;;;14.02;55.98;99384.91;3151514;28;20551;-76
2023/04/30 03:01:20;;;;;;;9.15;3.78;;;;;;;14.03;55.97;99380.50;3157285;28;20047;-77
2023/04/30 03:02:52;;;;;;;17.13;3.80;;;;;;;13.93;56.27;99372.44;3165259;28;20051;-76
2023/04/30 03:04:23;;;;;;;11.45;3.58;;;;;;;14.02;56.32;99394.53;3159283;28;20074;-76
2023/04/30 03:05:58;;;;;;;8.75;3.58;;;;;;;14.01;56.35;99387.63;3165128;28;20051;-77
2023/04/30 03:07:30;;;;;;;8.90;3.90;;;;;;;13.98;56.21;99390.44;3164822;28;20064;-77
2023/04/30 03:09:02;;;;;;;10.52;4.15;;;;;;;13.99;56.30;99390.34;3160474;28;20052;-76
2023/04/30 03:10:34;;;;;;;8.95;4.07;;;;;;;13.98;56.28;99387.81;3153846;28;20051;-77
2023/04/30 03:12:06;;;;;;;7.93;4.00;;;;;;;14.01;56.48;99393.69;3165346;28;20051;-77
2023/04/30 03:13:38;;;;;;;8.95;4.20;;;;;;;13.99;56.78;99389.50;3156106;28;20060;-76
2023/04/30 03:15:10;;;;;;;11.38;4.63;;;;;;;14.00;57.58;99394.63;3165250;28;20055;-77
2023/04/30 03:16:43;;;;;;;9.87;4.83;;;;;;;13.95;57.86;99395.88;3164560;28;20087;-77
2023/04/30 03:18:14;;;;;;;11.88;4.60;;;;;;;13.89;58.24;99390.09;3164812;28;20055;-76
2023/04/30 03:19:46;;;;;;;8.27;4.50;;;;;;;13.91;58.58;99392.63;3165332;28;20279;-77
2023/04/30 03:21:18;;;;;;;8.68;4.43;;;;;;;13.88;58.86;99396.28;3162272;28;20044;-77
2023/04/30 03:22:50;;;;;;;9.70;4.00;;;;;;;13.79;59.36;99382.97;3164896;28;20085;-76
2023/04/30 03:24:20;;;;;;;6.70;4.40;;;;;;;13.74;59.41;99383.25;3160447;28;20125;-77
2023/04/30 03:25:52;;;;;;;9.05;4.80;;;;;;;13.71;59.87;99375.59;3165134;28;20067;-77
2023/04/30 03:27:23;;;;;;;8.13;4.25;;;;;;;13.79;60.14;99399.50;3165243;28;20195;-77
2023/04/30 03:28:55;;;;;;;9.43;4.57;;;;;;;13.79;60.17;99403.91;3159219;28;20222;-77
2023/04/30 03:30:27;;;;;;;7.22;4.32;;;;;;;13.74;60.07;99385.88;3164252;28;20139;-77
2023/04/30 03:32:00;;;;;;;7.18;4.50;;;;;;;13.79;60.25;99403.91;3164799;28;20104;-76
2023/04/30 03:33:32;;;;;;;6.20;4.18;;;;;;;13.77;60.41;99403.97;3165910;28;20058;-77
2023/04/30 03:35:04;;;;;;;6.63;4.72;;;;;;;13.76;60.52;99404.09;3158492;28;20059;-77
2023/04/30 03:36:36;;;;;;;8.27;5.07;;;;;;;13.73;60.83;99407.75;3148462;28;20097;-76
2023/04/30 03:38:08;;;;;;;5.95;4.18;;;;;;;13.70;61.03;99418.41;3154852;28;20098;-77
2023/04/30 03:39:40;;;;;;;8.07;4.25;;;;;;;13.67;61.31;99409.94;3150348;28;20064;-78
2023/04/30 03:41:12;;;;;;;9.40;4.72;;;;;;;13.65;61.23;99415.25;3136102;28;20810;-78
2023/04/30 03:42:43;;;;;;;8.18;4.80;;;;;;;13.69;61.49;99419.34;3160823;28;20433;-78
2023/04/30 03:44:15;;;;;;;7.97;4.45;;;;;;;13.68;61.28;99416.81;3163203;28;20054;-78
2023/04/30 03:45:46;;;;;;;8.93;4.88;;;;;;;13.71;61.46;99416.63;3164751;28;20055;-77
2023/04/30 03:47:19;;;;;;;11.20;5.25;;;;;;;13.75;61.23;99425.94;3164815;28;20521;-78
2023/04/30 03:48:51;;;;;;;11.88;5.22;;;;;;;13.70;61.54;99413.19;3164508;28;20073;-78
2023/04/30 03:50:22;;;;;;;13.73;5.28;;;;;;;13.75;61.67;99429.41;3156167;28;20055;-77
2023/04/30 03:51:54;;;;;;;10.07;5.22;;;;;;;13.75;61.62;99429.41;3159237;28;20062;-76
2023/04/30 03:53:26;;;;;;;9.25;5.47;;;;;;;13.70;61.79;99426.28;3156791;28;20097;-76
2023/04/30 03:54:58;;;;;;;12.57;5.40;;;;;;;13.71;61.80;99429.72;3158238;28;20047;-76
2023/04/30 03:56:30;;;;;;;9.93;5.50;;;;;;;13.75;61.66;99431.19;3164242;28;20054;-76
2023/04/30 03:58:01;;;;;;;13.30;5.88;;;;;;;13.77;61.71;99432.78;3160692;28;20138;-76
2023/04/30 03:59:33;;;;;;;13.10;5.55;;;;;;;13.78;61.98;99438.84;3155595;28;20047;-77
2023/04/30 04:01:05;;;;;;;11.77;5.82;;;;;;;13.76;61.87;99431.09;3159886;28;20078;-77
2023/04/30 04:02:39;;;;;;;10.25;5.75;;;;;;;13.43;61.91;99382.63;3164622;28;20225;-77
2023/04/30 04:04:11;;;;;;;12.00;5.60;;;;;;;13.75;61.83;99434.63;3164237;28;20043;-76
2023/04/30 04:05:42;;;;;;;9.25;5.95;;;;;;;13.76;62.05;99443.34;3164532;28;20100;-77
2023/04/30 04:07:14;;;;;;;9.95;6.03;;;;;;;13.77;62.06;99443.25;3160316;28;20059;-77
2023/04/30 04:08:46;;;;;;;12.82;6.18;;;;;;;13.76;62.11;99435.50;3164397;28;20089;-77
2023/04/30 04:10:18;;;;;;;10.50;5.93;;;;;;;13.73;62.21;99438.31;3164406;28;20066;-77
2023/04/30 04:11:49;;;;;;;13.48;6.35;;;;;;;13.73;62.05;99436.53;3164180;28;20052;-77
2023/04/30 04:13:21;;;;;;;9.73;5.75;;;;;;;13.75;62.22;99442.50;3158026;28;20086;-77
2023/04/30 04:14:53;;;;;;;12.63;6.30;;;;;;;13.68;62.22;99429.91;3162045;28;20086;-78
2023/04/30 04:16:25;;;;;;;11.52;6.93;;;;;;;13.63;62.38;99430.19;3161525;28;20051;-77
2023/04/30 04:17:59;;;;;;;12.50;6.25;;;;;;;13.75;62.34;99447.72;3160489;28;20139;-77
2023/04/30 04:19:29;;;;;;;9.95;5.97;;;;;;;13.74;62.55;99447.84;3164167;28;20059;-77
2023/04/30 04:21:01;;;;;;;9.73;6.10;;;;;;;13.73;62.68;99452.25;3164129;28;20560;-77
2023/04/30 04:22:33;;;;;;;10.63;6.45;;;;;;;13.73;62.53;99452.25;3159596;28;20097;-77
2023/04/30 04:24:07;;;;;;;15.48;6.47;;;;;;;13.68;62.83;99440.38;3162813;28;20054;-77
2023/04/30 04:25:40;;;;;;;14.88;6.30;;;;;;;13.74;62.86;99453.91;3157024;28;20052;-77
2023/04/30 04:27:12;;;;;;;11.23;6.45;;;;;;;13.74;62.91;99453.06;3164211;28;20052;-77
2023/04/30 04:28:44;;;;;;;14.32;6.10;;;;;;;13.75;62.99;99452.13;3158531;28;20078;-77
2023/04/30 04:30:15;;;;;;;11.55;6.63;;;;;;;13.73;63.30;99447.00;3164449;28;20048;-77
2023/04/30 04:31:48;;;;;;;12.95;5.93;;;;;;;13.77;62.93;99445.84;3163925;28;20378;-77
2023/04/30 04:33:21;;;;;;;15.32;6.38;;;;;;;13.78;63.19;99455.41;3164456;28;20138;-77
2023/04/30 04:34:54;;;;;;;13.77;6.43;;;;;;;13.77;63.10;99452.88;3163836;28;20138;-77
2023/04/30 04:36:26;;;;;;;15.57;6.85;;;;;;;13.73;63.24;99441.78;3151677;28;20071;-77
2023/04/30 04:37:57;;;;;;;14.90;7.45;;;;;;;13.79;63.13;99451.00;3164728;28;20074;-77
2023/04/30 04:39:29;;;;;;;12.57;6.70;;;;;;;13.81;63.28;99451.72;3156530;28;20569;-78
2023/04/30 04:41:01;;;;;;;17.42;6.80;;;;;;;13.82;63.15;99448.19;3161639;28;20116;-77
2023/04/30 04:42:33;;;;;;;11.70;6.30;;;;;;;13.83;63.17;99445.47;3164354;28;20063;-77
2023/04/30 04:44:04;;;;;;;10.30;6.35;;;;;;;13.54;63.16;99396.78;3161784;28;20052;-77
2023/04/30 04:45:37;;;;;;;11.00;5.93;;;;;;;13.83;63.42;99442.84;3164226;28;20155;-76
2023/04/30 04:47:11;;;;;;;13.48;7.00;;;;;;;13.83;63.68;99453.31;3164638;28;20052;-77
2023/04/30 04:48:43;;;;;;;11.93;6.70;;;;;;;13.83;63.66;99450.69;3164166;28;20063;-76
2023/04/30 04:50:15;;;;;;;12.32;7.40;;;;;;;13.82;63.96;99456.88;3164052;28;20158;-76
2023/04/30 04:51:47;;;;;;;18.10;7.43;;;;;;;13.82;63.81;99456.06;3159221;28;20048;-76
2023/04/30 04:53:19;;;;;;;13.80;7.68;;;;;;;13.81;63.92;99457.84;3157876;28;20120;-76
2023/04/30 04:54:51;;;;;;;16.55;7.20;;;;;;;13.80;64.27;99455.28;3155980;28;20429;-76
2023/04/30 04:56:23;;;;;;;16.17;7.95;;;;;;;13.79;64.37;99459.69;3164195;28;20067;-76
2023/04/30 04:57:55;;;;;;;14.60;7.72;;;;;;;13.74;64.33;99446.06;3161549;28;20054;-77
2023/04/30 04:59:27;;;;;;;13.98;8.35;;;;;;;13.83;64.60;99457.72;3154280;28;20055;-76
2023/04/30 05:01:00;;;;;;;15.52;7.85;;;;;;;13.83;64.78;99458.53;3159864;28;20188;-76
2023/04/30 05:02:30;;;;;;;14.38;8.13;;;;;;;13.88;64.67;99461.72;3163679;28;20063;-77
2023/04/30 05:04:04;;;;;;;14.93;7.93;;;;;;;13.85;64.87;99446.22;3163955;28;20054;-76
2023/04/30 05:05:36;;;;;;;13.57;8.20;;;;;;;14.00;64.91;99464.50;3160030;28;20429;-77
2023/04/30 05:07:08;;;;;;;17.02;8.10;;;;;;;14.14;64.78;99461.81;3139175;28;20052;-77
2023/04/30 05:08:39;;;;;;;13.25;8.10;;;;;;;14.38;64.66;99469.00;3162882;28;20436;-77
2023/04/30 05:10:11;;;;;;;11.48;7.28;;;;;;;14.65;64.38;99467.19;3164042;28;20047;-77
2023/04/30 05:11:45;;;;;;;10.75;6.97;;;;;;;15.01;63.72;99468.25;3163967;28;20518;-77
2023/04/30 05:13:16;;;;;;;11.82;6.82;;;;;;;15.42;62.75;99467.16;3155006;28;20479;-76
2023/04/30 05:14:50;;;;;;;10.85;6.93;;;;;;;15.80;61.74;99461.84;3160137;28;20548;-76
2023/04/30 05:16:22;;;;;;;12.65;6.65;;;;;;;16.23;60.84;99469.19;3164079;28;20544;-76
2023/04/30 05:17:53;;;;;;;8.43;6.32;;;;;;;16.68;59.82;99465.88;3163928;28;20074;-76
2023/04/30 05:19:27;;;;;;;8.95;6.20;;;;;;;16.94;58.69;99461.28;3164042;28;20047;-74
2023/04/30 05:20:58;;;;;;;;;;;;;;;17.37;58.66;99468.50;3159964;28;20100;-74
2023/04/30 05:22:30;;;;;;;12.20;6.93;;;;;;;17.72;57.02;99463.06;3163787;28;19946;-73
2023/04/30 05:24:03;;;;;;;14.25;6.25;;;;;;;17.94;55.82;99444.56;3165549;28;20048;-74
2023/04/30 05:25:36;;;;;;;9.27;5.70;;;;;;;18.45;55.09;99464.13;3166341;28;20552;-74
2023/04/30 05:27:08;;;;;;;9.65;5.68;;;;;;;18.79;53.83;99466.63;3165707;28;20051;-75
2023/04/30 05:28:39;;;;;;;12.13;6.53;;;;;;;18.83;52.89;99465.38;3160414;28;20292;-76
2023/04/30 05:30:14;;;;;;;10.25;5.88;;;;;;;18.74;52.69;99451.16;3166108;28;20120;-76
2023/04/30 05:31:45;;;;;;;11.20;6.22;;;;;;;18.94;52.19;99464.47;3165858;28;20335;-76
2023/04/30 05:33:17;;;;;;;9.48;5.47;;;;;;;19.01;51.72;99462.97;3166039;28;20047;-76
2023/04/30 05:34:50;;;;;;;10.02;5.78;;;;;;;18.97;51.63;99469.50;3161616;28;20453;-75
2023/04/30 05:36:22;;;;;;;;;;;;;;;18.88;51.97;99470.28;3141317;28;20052;-76
2023/04/30 05:37:54;;;;;;;10.02;5.78;;;;;;;18.80;51.74;99463.84;3165454;28;20328;-76
2023/04/30 05:39:25;;;;;;;9.70;5.93;;;;;;;18.81;51.20;99462.88;3159155;28;20059;-76
2023/04/30 05:40:57;;;;;;;9.35;5.65;;;;;;;18.71;51.21;99463.75;3162643;28;20096;-76
2023/04/30 05:42:29;;;;;;;10.63;5.80;;;;;;;18.61;51.06;99463.69;3165864;28;20071;-76
2023/04/30 05:44:03;;;;;;;13.38;6.20;;;;;;;18.56;51.05;99465.88;3155857;28;20361;-75
2023/04/30 05:45:35;;;;;;;11.85;5.93;;;;;;;18.50;51.37;99461.13;3161846;28;20146;-78
2023/04/30 05:47:07;;;;;;;13.70;5.32;;;;;;;18.60;51.12;99468.13;3162660;28;20059;-78
2023/04/30 05:48:38;;;;;;;9.63;6.30;;;;;;;18.60;50.98;99475.19;3161994;28;20117;-78
2023/04/30 05:50:12;;;;;;;11.30;4.53;;;;;;;18.55;50.66;99458.94;3150668;28;20142;-78
2023/04/30 05:51:44;;;;;;;12.93;6.82;;;;;;;18.67;50.47;99465.81;3148641;28;20051;-78
2023/04/30 05:53:16;;;;;;;12.57;5.43;;;;;;;18.78;50.10;99457.00;3149094;28;20064;-78
2023/04/30 05:54:48;;;;;;;9.18;5.63;;;;;;;19.03;49.73;99466.31;3160547;28;20166;-78
2023/04/30 05:56:20;;;;;;;10.52;4.40;;;;;;;19.24;49.00;99472.41;3162507;28;20421;-77
2023/04/30 05:57:51;;;;;;;9.07;5.25;;;;;;;19.43;48.55;99471.66;3159406;28;20218;-76
2023/04/30 05:59:23;;;;;;;12.80;5.25;;;;;;;19.58;48.05;99471.25;3157800;28;20139;-76
2023/04/30 06:00:54;;;;;;;12.45;5.40;;;;;;;19.78;47.68;99465.06;3154942;28;20051;-76
2023/04/30 06:02:26;;;;;;;9.07;4.97;;;;;;;20.03;47.32;99469.03;3151170;28;20125;-76
2023/04/30 06:03:58;;;;;;;11.30;5.03;;;;;;;20.27;46.71;99465.13;3146751;28;20538;-74
2023/04/30 06:05:31;;;;;;;12.35;5.20;;;;;;;20.48;46.11;99463.16;3142774;28;20083;-71
2023/04/30 06:07:03;;;;;;;;;;;;;;;20.68;46.39;99472.78;3144227;28;20056;-71
2023/04/30 06:08:35;;;;;;;13.48;4.20;;;;;;;20.85;45.56;99473.88;3142020;28;20773;-71
2023/04/30 06:10:08;;;;;;;9.02;5.22;;;;;;;21.00;45.19;99468.09;3140079;28;20056;-68
2023/04/30 06:11:40;;;;;;;8.30;5.10;;;;;;;20.95;44.52;99446.53;3141450;28;20578;-69
2023/04/30 06:13:13;;;;;;;11.38;5.38;;;;;;;21.19;44.20;99473.34;3142287;28;20040;-69
2023/04/30 06:14:45;;;;;;;10.52;5.25;;;;;;;21.25;43.69;99469.28;3142253;28;20170;-69
2023/04/30 06:16:17;;;;;;;6.78;4.75;;;;;;;20.95;43.06;99426.19;3156980;28;20056;-73
2023/04/30 06:17:49;;;;;;;8.45;4.75;;;;;;;21.22;43.21;99475.69;3161476;28;20824;-71
2023/04/30 06:19:21;;;;;;;9.63;4.80;;;;;;;21.14;42.69;99484.34;3161812;28;20138;-72
2023/04/30 06:20:55;;;;;;;10.27;5.72;;;;;;;21.11;42.69;99478.50;3161035;28;20056;-68
2023/04/30 06:22:26;;;;;;;;;;;;;;;20.90;43.44;99478.72;3160816;28;20063;-71
2023/04/30 06:23:58;;;;;;;63.53;37.85;;;;;;;20.81;43.16;99474.28;3161370;28;19924;-68
2023/04/30 06:25:30;;;;;;;11.05;5.18;;;;;;;20.70;43.03;99463.84;3161145;28;20112;-68
2023/04/30 06:27:02;;;;;;;15.77;10.13;;;;;;;20.62;42.83;99476.00;3161475;28;20143;-72
2023/04/30 06:28:34;;;;;;;9.60;5.15;;;;;;;20.55;42.87;99474.88;3158547;28;20136;-72
2023/04/30 06:30:08;;;;;;;8.73;4.80;;;;;;;20.50;42.96;99473.59;3160641;28;20060;-75
2023/04/30 06:31:39;;;;;;;;;;;;;;;20.30;43.59;99475.44;3160883;28;20104;-77
2023/04/30 06:33:11;;;;;;;22.48;5.15;;;;;;;20.22;44.03;99465.53;3160976;28;20377;-76
2023/04/30 06:34:43;;;;;;;15.43;8.50;;;;;;;20.19;44.22;99465.81;3155926;28;20047;-78
2023/04/30 06:36:17;;;;;;;14.00;8.70;;;;;;;20.18;44.41;99478.22;3153271;28;20054;-70
2023/04/30 06:37:48;;;;;;;10.68;5.53;;;;;;;20.10;44.42;99477.22;3163157;28;20047;-72
2023/04/30 06:39:20;;;;;;;11.75;6.72;;;;;;;20.00;44.40;99469.28;3159088;28;20091;-75
2023/04/30 06:40:52;;;;;;;10.60;5.10;;;;;;;19.95;44.79;99474.97;3161290;28;20056;-75
2023/04/30 06:42:24;;;;;;;10.07;6.38;;;;;;;19.89;44.78;99472.06;3164913;28;20767;-77
2023/04/30 06:43:56;;;;;;;10.55;5.60;;;;;;;19.85;45.03;99482.06;3155819;28;20310;-71
2023/04/30 06:45:28;;;;;;;7.93;5.15;;;;;;;19.77;45.02;99480.09;3164889;28;20059;-71
2023/04/30 06:47:00;;;;;;;8.00;4.95;;;;;;;19.70;45.40;99472.84;3164271;28;20055;-74
2023/04/30 06:48:32;;;;;;;8.52;4.50;;;;;;;19.60;45.41;99458.75;3164029;28;20273;-72
2023/04/30 06:50:05;;;;;;;8.00;4.28;;;;;;;19.48;45.18;99437.72;3157440;28;20528;-73
2023/04/30 06:51:41;;;;;;;9.55;4.38;;;;;;;19.80;45.04;99467.59;3164976;28;20489;-77
2023/04/30 06:53:14;;;;;;;9.85;4.35;;;;;;;19.86;45.23;99472.34;3149654;28;20109;-75
2023/04/30 06:54:46;;;;;;;9.55;4.53;;;;;;;19.96;44.98;99474.00;3151732;28;20549;-73
2023/04/30 06:56:17;;;;;;;6.63;3.47;;;;;;;20.01;44.65;99465.66;3163630;28;20052;-79
2023/04/30 06:57:49;;;;;;;19.70;10.18;;;;;;;20.07;44.35;99459.00;3156195;28;20052;-70
2023/04/30 06:59:22;;;;;;;39.28;22.60;;;;;;;20.19;44.47;99464.00;3164095;28;20460;-71
2023/04/30 07:00:54;;;;;;;55.17;24.88;;;;;;;20.27;44.29;99468.63;3159817;28;20051;-73
2023/04/30 07:02:26;;;;;;;7.40;4.45;;;;;;;20.40;43.85;99463.03;3163217;28;20071;-74
2023/04/30 07:03:59;;;;;;;6.22;3.30;;;;;;;20.50;43.45;99453.28;3161634;28;20520;-73
2023/04/30 07:05:31;;;;;;;4.13;2.92;;;;;;;20.64;43.59;99459.97;3152035;28;20056;-74
2023/04/30 07:07:04;;;;;;;5.25;3.38;;;;;;;20.70;42.88;99455.91;3161493;28;20052;-78
2023/04/30 07:08:37;;;;;;;;;;;;;;;20.57;42.71;99457.06;3165806;28;20063;-76
2023/04/30 07:10:09;;;;;;;7.70;3.50;;;;;;;20.48;42.82;99443.81;3165147;28;19975;-77
2023/04/30 07:11:41;;;;;;;7.30;4.18;;;;;;;20.64;42.24;99458.16;3164703;28;20078;-75
2023/04/30 07:13:13;;;;;;;8.95;3.80;;;;;;;20.74;42.57;99455.50;3159311;28;20495;-75
2023/04/30 07:14:45;;;;;;;5.72;3.00;;;;;;;20.82;42.28;99450.34;3158339;28;20051;-70
2023/04/30 07:16:17;;;;;;;5.57;3.10;;;;;;;20.97;42.03;99457.78;3164674;28;20137;-74